Time;durP1;ratioP1;P1;durP2;ratioP2;P2;SDS_P1;SDS_P2;PMS_P1;PMS_P2;Temp;Humidity;BMP_temperature;BMP_pressure;BME280_temperature;BME280_humidity;BME280_pressure;Samples;Min_cycle;Max_cycle;Signal;HPM_P1;HPM_P2
2022/03/26 00:02:26;;;;;;;;;60.25;42.25;;;;;12.76;40.22;102380.88;5044023;28;45218;-75
2022/03/26 00:04:52;;;;;;;;;55.50;41.25;;;;;12.73;41.56;102393.97;5044883;28;45334;-72
2022/03/26 00:07:17;;;;;;;;;54.00;38.00;;;;;12.67;41.24;102385.34;5062149;28;45213;-75
2022/03/26 00:09:42;;;;;;;;;54.75;37.75;;;;;12.63;41.36;102383.66;5062895;28;45248;-75
2022/03/26 00:12:08;;;;;;;;;62.25;45.25;;;;;12.57;41.38;102389.75;5062303;28;45260;-73
2022/03/26 00:14:34;;;;;;;;;52.00;39.50;;;;;12.54;41.19;102394.16;5044540;28;45255;-72
2022/03/26 00:17:00;;;;;;;;;58.25;40.50;;;;;12.54;40.94;102388.94;5052442;28;45182;-72
2022/03/26 00:19:26;;;;;;;;;52.50;39.50;;;;;12.48;41.64;102385.50;5053190;28;45464;-72
2022/03/26 00:21:51;;;;;;;;;58.25;39.00;;;;;12.47;41.57;102389.00;5053370;28;45958;-72
2022/03/26 00:24:17;;;;;;;;;50.25;40.25;;;;;12.42;41.61;102387.31;5050790;28;45303;-72
2022/03/26 00:26:42;;;;;;;;;55.25;41.75;;;;;12.41;41.82;102389.06;5053129;28;46245;-72
2022/03/26 00:29:08;;;;;;;;;52.50;41.00;;;;;12.37;41.22;102379.50;5032598;28;46069;-72
2022/03/26 00:31:34;;;;;;;;;54.50;41.50;;;;;12.33;43.23;102384.78;5049826;28;45466;-72
2022/03/26 00:34:00;;;;;;;;;59.50;40.75;;;;;12.27;41.88;102383.09;5058644;28;45356;-72
2022/03/26 00:36:25;;;;;;;;;59.50;42.75;;;;;12.26;41.82;102380.50;5043438;28;45546;-72
2022/03/26 00:38:51;;;;;;;;;62.25;44.75;;;;;12.23;42.25;102389.22;5049711;28;45221;-72
2022/03/26 00:41:16;;;;;;;;;60.75;43.00;;;;;12.18;42.35;102383.16;5061551;28;45285;-71
2022/03/26 00:43:41;;;;;;;;;53.25;40.00;;;;;12.16;41.98;102379.69;5062072;28;45490;-72
2022/03/26 00:46:07;;;;;;;;;18.50;11.00;;;;;12.13;42.58;102384.94;5061809;28;45170;-73
2022/03/26 00:48:32;;;;;;;;;65.75;45.75;;;;;12.09;43.03;102372.81;5043434;28;47945;-73
2022/03/26 00:50:58;;;;;;;;;48.25;39.75;;;;;12.07;42.13;102377.16;5061454;28;45295;-73
2022/03/26 00:53:24;;;;;;;;;59.50;41.75;;;;;12.05;42.50;102368.50;5061991;28;45414;-73
2022/03/26 00:55:49;;;;;;;;;62.75;44.75;;;;;12.04;42.28;102375.47;5060040;28;45379;-73
2022/03/26 00:58:14;;;;;;;;;57.00;43.50;;;;;12.05;42.67;102378.94;5061151;28;46036;-77
2022/03/26 01:00:42;;;;;;;;;62.00;42.25;;;;;12.01;42.66;102380.66;5060947;28;45385;-77
2022/03/26 01:03:09;;;;;;;;;55.25;40.25;;;;;12.00;42.70;102378.06;5061030;28;45370;-76
2022/03/26 01:05:35;;;;;;;;;59.25;44.00;;;;;11.99;42.34;102377.22;5059113;28;45613;-76
2022/03/26 01:08:00;;;;;;;;;44.25;37.75;;;;;11.94;42.91;102376.38;5061511;28;46061;-76
2022/03/26 01:10:26;;;;;;;;;62.25;45.75;;;;;11.92;42.73;102375.53;5061431;28;45592;-77
2022/03/26 01:12:52;;;;;;;;;59.25;45.00;;;;;11.90;42.71;102379.03;5043510;28;45271;-71
2022/03/26 01:15:18;;;;;;;;;65.00;45.25;;;;;11.91;43.16;102379.00;5061393;28;45347;-72
2022/03/26 01:17:44;;;;;;;;;65.00;47.25;;;;;11.86;42.69;102376.44;5060839;28;45359;-72
2022/03/26 01:20:10;;;;;;;;;54.75;37.00;;;;;11.80;42.88;102366.03;5060745;28;45423;-76
2022/03/26 01:22:35;;;;;;;;;62.00;45.75;;;;;11.81;43.15;102372.13;5059509;28;45534;-69
2022/03/26 01:25:01;;;;;;;;;61.75;44.25;;;;;11.79;42.65;102369.53;5058877;28;45585;-71
2022/03/26 01:27:26;;;;;;;;;57.25;42.25;;;;;11.75;42.50;102362.59;5040229;28;47939;-72
2022/03/26 01:29:51;;;;;;;;;58.50;45.75;;;;;11.74;43.83;102365.19;5045307;28;45447;-71
2022/03/26 01:32:17;;;;;;;;;54.50;39.75;;;;;11.72;43.44;102366.94;5058739;28;45461;-71
2022/03/26 01:34:42;;;;;;;;;62.00;44.75;;;;;11.68;43.08;102368.72;5058938;28;45382;-71
2022/03/26 01:37:07;;;;;;;;;62.50;48.25;;;;;11.66;43.56;102367.88;5058126;28;47355;-71
2022/03/26 01:39:33;;;;;;;;;64.75;46.75;;;;;11.64;43.08;102359.19;5059489;28;45684;-71
2022/03/26 01:42:07;;;;;;;;;57.50;43.00;;;;;11.61;42.93;102355.72;5060713;28;45281;-71
2022/03/26 01:44:33;;;;;;;;;67.50;47.50;;;;;11.57;43.35;102358.34;5043100;28;45390;-71
2022/03/26 01:47:00;;;;;;;;;54.75;43.00;;;;;11.52;43.55;102348.84;5060988;28;45305;-71
2022/03/26 01:49:25;;;;;;;;;59.25;45.50;;;;;11.53;43.86;102355.78;5042707;28;45965;-71
2022/03/26 01:51:51;;;;;;;;;66.00;45.50;;;;;11.46;43.40;102344.53;5060915;28;45469;-71
2022/03/26 01:54:18;;;;;;;;;63.00;44.75;;;;;11.46;43.84;102341.94;5060527;28;45287;-71
2022/03/26 01:56:44;;;;;;;;;60.50;41.00;;;;;11.44;44.00;102345.44;5060156;28;45899;-71
2022/03/26 01:59:10;;;;;;;;;53.75;39.75;;;;;11.42;43.96;102349.78;5060190;28;45240;-65
2022/03/26 02:01:36;;;;;;;;;85.25;61.75;;;;;11.39;44.08;102342.81;5060767;28;45536;-74
2022/03/26 02:04:03;;;;;;;;;89.25;69.00;;;;;11.36;44.15;102342.84;5060514;28;45482;-72
2022/03/26 02:06:33;;;;;;;;;107.75;80.25;;;;;11.36;44.60;102350.66;5060232;28;46162;-72
2022/03/26 02:09:09;;;;;;;;;97.25;78.75;;;;;11.27;44.98;102333.34;5060231;28;46326;-73
2022/03/26 02:11:37;;;;;;;;;86.75;67.25;;;;;11.33;44.33;102353.28;5060493;28;45339;-74
2022/03/26 02:14:03;;;;;;;;;81.00;60.75;;;;;11.32;44.40;102342.88;5060299;28;45316;-77
2022/03/26 02:16:31;;;;;;;;;73.75;55.00;;;;;11.26;44.85;102334.22;5060328;28;45448;-73
2022/03/26 02:18:56;;;;;;;;;70.50;50.25;;;;;11.23;44.56;102331.66;5041675;28;45277;-76
2022/03/26 02:21:23;;;;;;;;;71.50;53.50;;;;;11.22;44.63;102339.47;5034119;28;45306;-77
2022/03/26 02:23:49;;;;;;;;;59.25;45.25;;;;;11.18;44.90;102335.97;5058047;28;45342;-75
2022/03/26 02:26:16;;;;;;;;;67.50;49.75;;;;;11.13;44.93;102334.28;5060075;28;45383;-69
2022/03/26 02:28:44;;;;;;;;;64.00;48.00;;;;;11.10;44.68;102337.75;5055260;28;45269;-68
2022/03/26 02:31:13;;;;;;;;;64.25;48.50;;;;;11.07;45.25;102335.19;5052049;28;45351;-68
2022/03/26 02:33:39;;;;;;;;;61.00;46.25;;;;;11.03;45.54;102333.47;5060130;28;45432;-69
2022/03/26 02:36:05;;;;;;;;;59.00;46.50;;;;;11.03;45.66;102333.47;5059628;28;45387;-70
2022/03/26 02:38:31;;;;;;;;;66.50;44.75;;;;;10.98;45.37;102330.84;5059904;28;45315;-71
2022/03/26 02:40:56;;;;;;;;;63.75;46.75;;;;;10.98;45.66;102324.78;5060042;28;45266;-70
2022/03/26 02:43:22;;;;;;;;;53.75;39.75;;;;;10.97;45.79;102333.47;5059927;28;45312;-72
2022/03/26 02:45:48;;;;;;;;;57.75;40.75;;;;;10.89;46.14;102324.84;5059910;28;46153;-72
2022/03/26 02:48:14;;;;;;;;;59.00;44.00;;;;;10.90;45.51;102332.63;5041746;28;45882;-72
2022/03/26 02:50:40;;;;;;;;;57.25;44.25;;;;;10.84;45.67;102321.41;5059871;28;45256;-72
2022/03/26 02:53:06;;;;;;;;;61.50;44.75;;;;;10.78;45.56;102332.66;5059888;28;45233;-71
2022/03/26 02:55:31;;;;;;;;;63.75;46.75;;;;;10.78;45.98;102329.19;5041300;28;47148;-72
2022/03/26 02:57:56;;;;;;;;;60.25;43.50;;;;;10.75;45.36;102343.06;5059678;28;45425;-72
2022/03/26 03:00:22;;;;;;;;;62.25;45.25;;;;;10.70;46.12;102328.38;5060027;28;45300;-73
2022/03/26 03:02:48;;;;;;;;;57.50;43.50;;;;;10.69;46.27;102339.63;5059545;28;45374;-72
2022/03/26 03:05:13;;;;;;;;;62.50;43.00;;;;;10.64;46.11;102326.66;5059664;28;46073;-72
2022/03/26 03:07:39;;;;;;;;;64.00;46.00;;;;;10.60;46.03;102320.56;5059377;28;45355;-71
2022/03/26 03:10:04;;;;;;;;;62.25;47.00;;;;;10.62;46.35;102326.66;5059995;28;45666;-72
2022/03/26 03:12:30;;;;;;;;;59.25;42.50;;;;;10.59;45.95;102321.44;5059274;28;45495;-72
2022/03/26 03:14:55;;;;;;;;;61.75;47.00;;;;;10.58;46.53;102331.84;5059693;28;45356;-72
2022/03/26 03:17:21;;;;;;;;;65.50;49.00;;;;;10.55;46.32;102319.72;5041363;28;45325;-73
2022/03/26 03:19:46;;;;;;;;;49.75;33.00;;;;;10.50;45.84;102326.66;5050204;28;45494;-73
2022/03/26 03:22:12;;;;;;;;;62.25;45.50;;;;;10.52;47.26;102329.25;5061539;28;45453;-73
2022/03/26 03:24:37;;;;;;;;;69.75;46.25;;;;;10.45;46.57;102318.03;5063232;28;46175;-73
2022/03/26 03:27:03;;;;;;;;;64.25;43.50;;;;;10.45;47.12;102331.03;5062616;28;45639;-73
2022/03/26 03:29:29;;;;;;;;;64.75;46.50;;;;;10.43;46.83;102327.56;5063058;28;45353;-72
2022/03/26 03:31:54;;;;;;;;;70.00;48.75;;;;;10.41;47.10;102326.69;5062804;28;45486;-72
2022/03/26 03:34:20;;;;;;;;;56.75;39.75;;;;;10.34;47.09;102320.63;5063005;28;45381;-73
2022/03/26 03:36:45;;;;;;;;;58.25;43.25;;;;;10.30;46.84;102323.22;5062157;28;45272;-72
2022/03/26 03:39:10;;;;;;;;;67.50;48.00;;;;;10.29;47.59;102329.31;5063064;28;45162;-72
2022/03/26 03:41:36;;;;;;;;;63.00;46.75;;;;;10.26;47.09;102319.78;5062472;28;45228;-72
2022/03/26 03:44:04;;;;;;;;;62.75;43.75;;;;;10.22;47.86;102325.00;5062792;28;47037;-73
2022/03/26 03:46:30;;;;;;;;;68.25;49.00;;;;;10.21;47.78;102331.03;5062729;28;45940;-70
2022/03/26 03:48:56;;;;;;;;;48.00;40.75;;;;;10.21;47.51;102326.72;5062913;28;45303;-71
2022/03/26 03:51:22;;;;;;;;;61.00;45.50;;;;;10.21;47.88;102334.50;5062315;28;45475;-71
2022/03/26 03:53:47;;;;;;;;;66.75;49.00;;;;;10.19;47.55;102336.19;5062521;28;45933;-70
2022/03/26 03:56:12;;;;;;;;;59.25;48.25;;;;;10.20;47.51;102345.72;5061874;28;45319;-71
2022/03/26 03:58:38;;;;;;;;;65.00;50.25;;;;;10.16;47.71;102338.78;5062924;28;45908;-71
2022/03/26 04:01:04;;;;;;;;;60.00;46.00;;;;;10.15;47.91;102331.84;5062351;28;45458;-72
2022/03/26 04:03:30;;;;;;;;;66.50;47.25;;;;;10.13;47.81;102341.38;5062559;28;46182;-71
2022/03/26 04:05:55;;;;;;;;;59.75;44.00;;;;;10.09;48.06;102333.59;5062166;28;45242;-71
2022/03/26 04:08:21;;;;;;;;;60.25;43.75;;;;;10.10;47.65;102332.72;5062706;28;45305;-70
2022/03/26 04:10:47;;;;;;;;;59.25;46.00;;;;;10.08;48.19;102332.75;5062238;28;45383;-68
2022/03/26 04:13:12;;;;;;;;;63.75;46.25;;;;;10.08;48.43;102337.94;5062417;28;45337;-68
2022/03/26 04:15:37;;;;;;;;;70.00;50.00;;;;;10.06;48.17;102347.47;5062256;28;45229;-68
2022/03/26 04:18:03;;;;;;;;;57.00;38.50;;;;;10.03;48.26;102345.72;5062593;28;45257;-69
2022/03/26 04:20:28;;;;;;;;;61.00;46.75;;;;;10.03;48.20;102350.94;5062720;28;45257;-68
2022/03/26 04:22:54;;;;;;;;;60.50;43.25;;;;;10.01;49.43;102355.25;5062235;28;46523;-67
2022/03/26 04:25:19;;;;;;;;;60.25;43.50;;;;;9.95;48.50;102347.44;5062126;28;45475;-69
2022/03/26 04:27:46;;;;;;;;;58.50;43.75;;;;;9.95;48.60;102344.84;5062270;28;45401;-69
2022/03/26 04:30:12;;;;;;;;;58.50;44.50;;;;;9.96;48.35;102354.38;5048081;28;45577;-69
2022/03/26 04:32:38;;;;;;;;;61.50;44.50;;;;;9.95;49.06;102349.16;5062175;28;45358;-68
2022/03/26 04:35:04;;;;;;;;;62.50;43.50;;;;;9.95;48.99;102352.63;5061744;28;45437;-69
2022/03/26 04:37:29;;;;;;;;;63.00;43.75;;;;;9.94;48.50;102353.50;5062042;28;45296;-68
2022/03/26 04:39:54;;;;;;;;;66.50;49.50;;;;;9.91;48.92;102348.31;5061885;28;45581;-68
2022/03/26 04:42:20;;;;;;;;;58.75;44.75;;;;;9.91;48.79;102348.31;5061507;28;46169;-68
2022/03/26 04:44:45;;;;;;;;;70.50;49.00;;;;;9.91;48.97;102345.72;5061724;28;45245;-67
2022/03/26 04:47:11;;;;;;;;;70.00;47.00;;;;;9.89;49.00;102347.44;5062239;28;45246;-67
2022/03/26 04:49:36;;;;;;;;;61.75;44.50;;;;;9.92;48.53;102344.84;5061723;28;45535;-67
2022/03/26 04:52:01;;;;;;;;;66.25;47.75;;;;;9.91;48.84;102350.91;5061534;28;45217;-68
2022/03/26 04:54:27;;;;;;;;;70.00;46.75;;;;;9.88;48.28;102345.72;5061345;28;45442;-68
2022/03/26 04:56:52;;;;;;;;;67.25;47.00;;;;;9.88;48.85;102358.69;5059002;28;45960;-68
2022/03/26 04:59:18;;;;;;;;;67.50;48.25;;;;;9.88;48.61;102353.50;5059037;28;45514;-69
2022/03/26 05:01:44;;;;;;;;;66.75;46.50;;;;;9.86;49.76;102359.56;5059206;28;45359;-70
2022/03/26 05:04:11;;;;;;;;;60.50;45.50;;;;;9.80;48.94;102349.16;5059136;28;45358;-68
2022/03/26 05:06:36;;;;;;;;;64.00;44.00;;;;;9.75;49.03;102344.81;5059231;28;45477;-71
2022/03/26 05:09:02;;;;;;;;;59.75;40.00;;;;;9.75;49.59;102354.34;5040813;28;45604;-71
2022/03/26 05:11:28;;;;;;;;;73.00;51.75;;;;;9.72;49.27;102346.53;5059062;28;45683;-71
2022/03/26 05:13:53;;;;;;;;;70.75;51.75;;;;;9.70;49.33;102350.88;5058885;28;45443;-71
2022/03/26 05:16:18;;;;;;;;;60.75;43.25;;;;;9.68;49.47;102350.88;5059322;28;45391;-72
2022/03/26 05:18:44;;;;;;;;;63.25;48.00;;;;;9.64;49.14;102348.28;5058749;28;45802;-70
2022/03/26 05:21:09;;;;;;;;;59.25;45.50;;;;;9.66;49.38;102354.34;5059582;28;46052;-70
2022/03/26 05:23:35;;;;;;;;;67.50;49.50;;;;;9.67;49.57;102356.06;5060791;28;45311;-71
2022/03/26 05:26:01;;;;;;;;;67.50;50.00;;;;;9.65;49.12;102360.38;5061344;28;45238;-69
2022/03/26 05:28:26;;;;;;;;;73.00;51.50;;;;;9.61;49.43;102353.44;5059196;28;45244;-70
2022/03/26 05:30:52;;;;;;;;;67.75;51.50;;;;;9.59;49.30;102362.94;5049763;28;45154;-70
2022/03/26 05:33:17;;;;;;;;;62.25;41.00;;;;;9.58;49.62;102367.28;5060899;28;45474;-70
2022/03/26 05:35:43;;;;;;;;;71.50;48.00;;;;;9.52;50.16;102369.84;5060601;28;45384;-72
2022/03/26 05:38:10;;;;;;;;;67.00;48.75;;;;;9.53;49.98;102368.13;5060610;28;45406;-71
2022/03/26 05:40:36;;;;;;;;;64.00;49.25;;;;;9.50;49.45;102373.31;5060865;28;45883;-71
2022/03/26 05:43:01;;;;;;;;;71.75;52.75;;;;;9.48;50.30;102369.84;5060365;28;45329;-71
2022/03/26 05:45:27;;;;;;;;;69.50;51.50;;;;;9.45;50.21;102373.31;5061157;28;45333;-72
2022/03/26 05:47:56;;;;;;;;;81.50;55.00;;;;;9.45;49.68;102374.19;5060797;28;45538;-73
2022/03/26 05:50:22;;;;;;;;;69.25;50.75;;;;;9.46;50.27;102382.81;5060538;28;45328;-70
2022/03/26 05:52:47;;;;;;;;;70.25;48.75;;;;;9.44;50.32;102363.78;5061054;28;45212;-76
2022/03/26 05:55:13;;;;;;;;;65.50;48.75;;;;;9.46;50.72;102367.25;5061198;28;45438;-76
2022/03/26 05:57:38;;;;;;;;;69.25;53.00;;;;;9.47;50.28;102369.00;5060757;28;45229;-76
2022/03/26 06:00:04;;;;;;;;;70.00;48.50;;;;;9.45;50.64;102371.56;5042958;28;48003;-71
2022/03/26 06:02:30;;;;;;;;;71.25;49.50;;;;;9.49;50.58;102371.59;5060309;28;45513;-71
2022/03/26 06:04:55;;;;;;;;;70.50;49.50;;;;;9.49;50.18;102376.78;5060966;28;45359;-74
2022/03/26 06:07:21;;;;;;;;;65.00;49.00;;;;;9.52;50.21;102377.66;5042392;28;45634;-74
2022/03/26 06:09:46;;;;;;;;;71.00;48.75;;;;;9.50;50.92;102373.31;5061000;28;45356;-71
2022/03/26 06:12:12;;;;;;;;;69.75;53.25;;;;;9.55;50.14;102389.75;5060093;28;45265;-75
2022/03/26 06:14:37;;;;;;;;;61.25;42.00;;;;;9.57;50.46;102394.09;5042681;28;45375;-74
2022/03/26 06:17:03;;;;;;;;;70.00;51.25;;;;;9.58;50.49;102408.81;5060298;28;45593;-73
2022/03/26 06:19:29;;;;;;;;;66.50;51.75;;;;;9.59;50.20;102399.28;5060636;28;45461;-73
2022/03/26 06:21:54;;;;;;;;;70.25;52.25;;;;;9.61;49.82;102402.75;5041124;28;45656;-73
2022/03/26 06:24:20;;;;;;;;;68.00;48.00;;;;;9.64;50.25;102395.88;5042491;28;45258;-72
2022/03/26 06:26:47;;;;;;;;;68.00;48.75;;;;;9.66;50.11;102408.84;5059919;28;45244;-74
2022/03/26 06:29:13;;;;;;;;;68.50;48.75;;;;;9.66;50.28;102416.63;5060039;28;45449;-73
2022/03/26 06:31:38;;;;;;;;;60.25;47.25;;;;;9.63;51.28;102412.31;5060175;28;45371;-74
2022/03/26 06:34:04;;;;;;;;;75.75;49.75;;;;;9.64;51.70;102419.22;5060670;28;45238;-76
2022/03/26 06:36:30;;;;;;;;;68.00;48.50;;;;;9.66;49.94;102414.03;5041780;28;45572;-75
2022/03/26 06:38:56;;;;;;;;;63.50;46.50;;;;;9.70;50.21;102418.38;5060380;28;45420;-75
2022/03/26 06:41:21;;;;;;;;;69.50;50.25;;;;;9.73;50.23;102418.38;5059799;28;45301;-75
2022/03/26 06:43:47;;;;;;;;;68.50;51.00;;;;;9.80;50.01;102421.84;5060594;28;45260;-75
2022/03/26 06:46:13;;;;;;;;;64.50;48.00;;;;;9.82;49.89;102423.59;5059905;28;45532;-76
2022/03/26 06:48:38;;;;;;;;;59.00;47.00;;;;;9.88;49.88;102433.13;5059612;28;45679;-74
2022/03/26 06:51:06;;;;;;;;;57.25;46.50;;;;;9.92;49.57;102433.13;5059336;28;45372;-75
2022/03/26 06:53:33;;;;;;;;;60.50;49.00;;;;;9.94;49.49;102435.72;5059292;28;45357;-73
2022/03/26 06:55:59;;;;;;;;;62.50;44.50;;;;;9.92;49.57;102438.34;5058298;28;45276;-73
2022/03/26 06:58:25;;;;;;;;;69.50;50.75;;;;;9.93;48.95;102431.41;5038133;28;48215;-73
2022/03/26 07:00:50;;;;;;;;;68.50;49.00;;;;;9.97;50.02;102439.19;5054584;28;45372;-73
2022/03/26 07:03:16;;;;;;;;;78.00;53.75;;;;;9.99;49.55;102429.69;5041884;28;45329;-75
2022/03/26 07:05:42;;;;;;;;;70.25;52.25;;;;;10.01;50.29;102438.38;5041320;28;45321;-75
2022/03/26 07:08:07;;;;;;;;;49.00;35.00;;;;;10.09;49.74;102434.91;5040959;28;47256;-76
2022/03/26 07:10:34;;;;;;;;;69.75;50.75;;;;;10.13;49.65;102437.50;5040753;28;45442;-73
2022/03/26 07:12:59;;;;;;;;;70.50;50.25;;;;;10.17;49.71;102441.84;5041581;28;45308;-72
2022/03/26 07:15:24;;;;;;;;;71.25;51.25;;;;;10.29;49.58;102459.22;5041204;28;45531;-71
2022/03/26 07:17:50;;;;;;;;;66.00;47.00;;;;;10.30;49.72;102454.03;5041465;28;47207;-70
2022/03/26 07:20:15;;;;;;;;;62.00;44.00;;;;;10.38;49.19;102458.34;5059893;28;45587;-72
2022/03/26 07:22:41;;;;;;;;;66.00;50.75;;;;;10.45;49.12;102457.50;5038027;28;45225;-72
2022/03/26 07:25:09;;;;;;;;;59.75;45.50;;;;;10.53;48.96;102458.38;5054545;28;45234;-69
2022/03/26 07:27:35;;;;;;;;;60.25;46.00;;;;;10.60;49.10;102460.09;5040957;28;47314;-70
2022/03/26 07:30:02;;;;;;;;;69.25;47.75;;;;;10.66;48.59;102470.50;5045370;28;45246;-69
2022/03/26 07:32:28;;;;;;;;;61.50;42.75;;;;;10.74;48.90;102466.16;5048081;28;45377;-70
2022/03/26 07:34:54;;;;;;;;;58.00;40.50;;;;;10.79;48.67;102461.81;5054082;28;45308;-75
2022/03/26 07:37:19;;;;;;;;;55.50;35.75;;;;;10.87;48.58;102475.69;5047575;28;45890;-71
2022/03/26 07:39:45;;;;;;;;;60.75;45.75;;;;;10.90;48.56;102467.03;5051102;28;45374;-71
2022/03/26 07:42:11;;;;;;;;;61.50;46.00;;;;;10.93;48.22;102467.00;5049375;28;45227;-71
2022/03/26 07:44:36;;;;;;;;;69.75;51.50;;;;;10.99;48.26;102464.41;5047142;28;45259;-69
2022/03/26 07:47:02;;;;;;;;;69.25;47.75;;;;;11.11;48.30;102472.19;5047741;28;46113;-66
2022/03/26 07:49:27;;;;;;;;;58.50;41.00;;;;;11.20;47.89;102469.56;5050259;28;45293;-71
2022/03/26 07:51:53;;;;;;;;;50.75;41.25;;;;;11.30;47.64;102466.94;5048916;28;45391;-69
2022/03/26 07:54:18;;;;;;;;;64.75;47.50;;;;;11.39;47.57;102469.50;5047252;28;45534;-69
2022/03/26 07:56:44;;;;;;;;;66.75;48.00;;;;;11.45;47.56;102472.13;5048924;28;46270;-66
2022/03/26 07:59:09;;;;;;;;;68.25;46.75;;;;;11.54;46.93;102472.06;5046905;28;45412;-71
2022/03/26 08:01:34;;;;;;;;;61.00;46.00;;;;;11.64;46.68;102467.69;5046808;28;45241;-67
2022/03/26 08:04:00;;;;;;;;;59.75;41.25;;;;;11.68;46.35;102465.06;5054798;28;45490;-74
2022/03/26 08:06:25;;;;;;;;;63.00;44.75;;;;;11.77;46.89;102469.34;5053488;28;45416;-72
2022/03/26 08:08:50;;;;;;;;;60.75;45.00;;;;;11.90;46.41;102476.28;5055811;28;45257;-71
2022/03/26 08:11:16;;;;;;;;;38.50;28.50;;;;;12.00;46.05;102464.91;5049694;28;45254;-69
2022/03/26 08:13:42;;;;;;;;;51.75;42.25;;;;;12.14;46.02;102472.66;5048933;28;45412;-70
2022/03/26 08:16:08;;;;;;;;;62.25;39.25;;;;;12.24;45.67;102471.75;5055196;28;45353;-68
2022/03/26 08:18:34;;;;;;;;;63.50;41.75;;;;;12.37;45.67;102475.97;5055545;28;45834;-68
2022/03/26 08:20:59;;;;;;;;;57.00;40.25;;;;;12.45;45.03;102469.00;5049515;28;45365;-68
2022/03/26 08:23:25;;;;;;;;;59.25;41.25;;;;;12.55;45.21;102482.81;5062022;28;45453;-69
2022/03/26 08:28:34;;;;;;;;;57.75;41.75;;;;;12.69;44.81;102480.97;5058218;28;45254;-67
2022/03/26 08:31:00;;;;;;;;;57.00;41.50;;;;;12.77;43.51;102483.50;5034547;28;45503;-71
2022/03/26 08:33:25;;;;;;;;;57.00;43.00;;;;;12.87;44.09;102479.94;5052704;28;45356;-74
2022/03/26 08:35:51;;;;;;;;;56.00;41.50;;;;;12.94;43.69;102475.50;5061643;28;45179;-65
2022/03/26 08:38:16;;;;;;;;;54.75;38.00;;;;;13.04;43.70;102482.38;5061743;28;45489;-68
2022/03/26 08:40:42;;;;;;;;;55.25;42.75;;;;;13.17;43.51;102488.34;5062009;28;45586;-67
2022/03/26 08:43:08;;;;;;;;;55.50;40.25;;;;;13.28;43.73;102486.53;5043065;28;45883;-67
2022/03/26 08:45:35;;;;;;;;;60.00;43.25;;;;;13.38;43.52;102477.69;5051615;28;45843;-63
2022/03/26 08:48:00;;;;;;;;;55.75;40.75;;;;;13.53;42.47;102482.75;5058769;28;45378;-66
2022/03/26 08:50:26;;;;;;;;;60.00;40.75;;;;;13.67;42.25;102483.44;5061781;28;45369;-67
2022/03/26 08:52:51;;;;;;;;;52.50;39.75;;;;;13.79;42.35;102478.94;5053660;28;45430;-67
2022/03/26 08:55:18;;;;;;;;;55.75;41.25;;;;;13.92;41.96;102484.00;5050028;28;46343;-67
2022/03/26 08:57:44;;;;;;;;;54.00;39.00;;;;;14.06;41.26;102486.41;5050173;28;45396;-68
2022/03/26 09:00:11;;;;;;;;;56.75;38.00;;;;;14.17;40.59;102474.03;5050656;28;45477;-67
2022/03/26 09:02:38;;;;;;;;;52.25;39.75;;;;;14.31;41.05;102485.16;5048610;28;45438;-66
2022/03/26 09:05:06;;;;;;;;;55.25;39.00;;;;;14.40;40.97;102480.69;5049959;28;45469;-71
2022/03/26 09:07:34;;;;;;;;;59.75;39.50;;;;;14.54;39.46;102482.22;5050433;28;45442;-71
2022/03/26 09:10:00;;;;;;;;;52.25;40.00;;;;;14.60;39.99;102479.50;5034988;28;45340;-66
2022/03/26 09:12:26;;;;;;;;;43.00;29.25;;;;;14.66;39.56;102480.31;5026202;28;45480;-67
2022/03/26 09:14:51;;;;;;;;;54.00;40.00;;;;;14.72;39.74;102481.06;5051968;28;46137;-71
2022/03/26 09:17:17;;;;;;;;;53.25;39.50;;;;;14.87;39.49;102487.78;5054281;28;45204;-71
2022/03/26 09:19:42;;;;;;;;;48.00;37.75;;;;;14.95;39.66;102485.03;5054015;28;46010;-68
2022/03/26 09:22:08;;;;;;;;;51.25;39.75;;;;;15.00;38.92;102481.44;5051363;28;45304;-68
2022/03/26 09:24:33;;;;;;;;;56.00;40.50;;;;;15.15;39.16;102480.28;5050558;28;46426;-65
2022/03/26 09:26:58;;;;;;;;;51.25;38.25;;;;;15.23;39.02;102475.78;5050708;28;45276;-67
2022/03/26 09:29:24;;;;;;;;;51.25;39.50;;;;;15.41;39.87;102480.66;5049508;28;45528;-74
2022/03/26 09:31:49;;;;;;;;;55.00;39.50;;;;;15.60;38.64;102473.31;5049269;28;45232;-70
2022/03/26 09:34:14;;;;;;;;;54.00;39.25;;;;;15.71;37.77;102465.25;5049391;28;46071;-67
2022/03/26 09:36:40;;;;;;;;;53.00;40.25;;;;;15.78;37.69;102478.19;5050271;28;45271;-67
2022/03/26 09:39:06;;;;;;;;;55.00;39.00;;;;;15.84;38.52;102468.47;5049048;28;45347;-68
2022/03/26 09:41:32;;;;;;;;;54.75;40.50;;;;;15.86;38.14;102470.16;5054919;28;45378;-67
2022/03/26 09:43:58;;;;;;;;;56.00;41.00;;;;;15.93;37.21;102476.13;5060530;28;46118;-66
2022/03/26 09:46:24;;;;;;;;;59.25;41.25;;;;;16.02;37.45;102476.81;5060364;28;45821;-63
2022/03/26 09:48:50;;;;;;;;;57.75;42.75;;;;;16.09;37.53;102477.50;5049572;28;45519;-63
2022/03/26 09:51:20;;;;;;;;;47.00;33.50;;;;;16.13;37.84;102472.16;5057357;28;45549;-60
2022/03/26 09:53:50;;;;;;;;;59.00;42.75;;;;;16.23;37.54;102474.59;5060757;28;45492;-62
2022/03/26 09:56:17;;;;;;;;;52.75;38.50;;;;;16.35;37.30;102466.41;5058515;28;45311;-65
2022/03/26 09:58:42;;;;;;;;;56.50;42.75;;;;;16.48;37.46;102475.72;5060482;28;45290;-68
2022/03/26 10:01:07;;;;;;;;;57.50;45.00;;;;;16.55;37.04;102471.16;5051699;28;45493;-67
2022/03/26 10:03:35;;;;;;;;;53.75;41.50;;;;;16.63;36.37;102470.09;5046708;28;46005;-68
2022/03/26 10:06:07;;;;;;;;;53.75;40.75;;;;;16.70;36.08;102460.31;5047040;28;45486;-62
2022/03/26 10:08:40;;;;;;;;;55.50;38.75;;;;;16.79;36.01;102465.31;5050543;28;45664;-62
2022/03/26 10:11:09;;;;;;;;;52.00;41.00;;;;;16.95;35.88;102463.16;5047610;28;45206;-66
2022/03/26 10:13:36;;;;;;;;;56.75;41.75;;;;;17.11;35.21;102461.00;5048488;28;45576;-67
2022/03/26 10:16:05;;;;;;;;;60.50;43.25;;;;;17.23;35.46;102463.31;5048458;28;47193;-66
2022/03/26 10:18:37;;;;;;;;;51.00;37.75;;;;;17.29;35.90;102460.50;5048450;28;45417;-65
2022/03/26 10:21:07;;;;;;;;;59.50;44.00;;;;;17.36;33.91;102456.78;5049648;28;45456;-66
2022/03/26 10:23:32;;;;;;;;;61.00;42.25;;;;;17.40;34.04;102461.03;5047216;28;46434;-63
2022/03/26 10:26:04;;;;;;;;;57.50;40.50;;;;;17.45;33.38;102455.66;5047462;28;45287;-63
2022/03/26 10:28:31;;;;;;;;;59.75;44.00;;;;;17.55;33.55;102452.72;5046376;28;45310;-62
2022/03/26 10:34:09;;;;;;;;;45.00;36.25;;;;;17.78;34.39;102454.69;5049239;28;45307;-63
2022/03/26 10:36:42;;;;;;;;;58.50;43.00;;;;;17.86;34.19;102450.06;5056553;28;46979;-64
2022/03/26 10:39:14;;;;;;;;;52.75;38.00;;;;;17.91;33.72;102439.41;5057824;28;45395;-66
2022/03/26 10:41:40;;;;;;;;;59.75;41.75;;;;;18.02;32.96;102452.22;5057247;28;45463;-64
2022/03/26 10:44:17;;;;;;;;;53.00;40.25;;;;;18.13;33.61;102450.13;5057955;28;45514;-65
2022/03/26 10:46:50;;;;;;;;;61.25;42.50;;;;;18.20;32.05;102446.38;5057589;28;45844;-64
2022/03/26 10:49:26;;;;;;;;;56.50;41.50;;;;;18.30;33.00;102447.81;5048129;28;45470;-66
2022/03/26 10:51:53;;;;;;;;;50.00;33.75;;;;;18.41;32.14;102436.91;5047106;28;45367;-67
2022/03/26 10:54:18;;;;;;;;;50.00;38.50;;;;;18.46;32.50;102433.22;5050308;28;46314;-69
2022/03/26 10:56:44;;;;;;;;;57.25;41.25;;;;;18.56;32.44;102436.41;5052662;28;45397;-67
2022/03/26 10:59:10;;;;;;;;;58.00;43.25;;;;;18.70;31.28;102436.84;5053071;28;45418;-67
2022/03/26 11:01:35;;;;;;;;;52.00;42.50;;;;;18.76;31.11;102436.63;5052997;28;45296;-69
2022/03/26 11:04:01;;;;;;;;;54.25;40.25;;;;;18.80;29.61;102435.59;5030273;28;47031;-71
2022/03/26 11:06:28;;;;;;;;;54.50;40.00;;;;;18.83;30.34;102432.03;5047184;28;46021;-72
2022/03/26 11:09:01;;;;;;;;;57.75;43.75;;;;;18.90;30.71;102432.66;5049110;28;45510;-69
2022/03/26 11:11:28;;;;;;;;;57.50;40.25;;;;;18.95;29.93;102436.84;5048830;28;45321;-64
2022/03/26 11:13:58;;;;;;;;;59.00;39.75;;;;;19.01;29.67;102436.59;5057349;28;45408;-65